< < Back
Terminal Aerodrome Forecast


Current Version              Previous Versions:   1  2  3  4  5  6  7  8  9  

Terminal Aerodrome Forecast

310
FTUS42 KTAE 042323
TAFDHN
TAF
KDHN 042323Z 0500/0524 21005KT P6SM SCT070
     FM051800 22010KT 6SM -TSRA BKN040CB
     FM052000 21010KT P6SM SCT040 BKN250=

Latest METAR

196
SAUS70 KWBC 050800 RRK
MTRDHN
METAR KDHN 050753Z AUTO 24003KT 9SM CLR 24/23 A3006 RMK AO2 SLP174
T02440233


USA.gov is the U.S. government's official web portal to all federal, state and local government web resources and services.